Time;durP1;ratioP1;P1;durP2;ratioP2;P2;SDS_P1;SDS_P2;PMS_P1;PMS_P2;Temp;Humidity;BMP_temperature;BMP_pressure;BME280_temperature;BME280_humidity;BME280_pressure;Samples;Min_cycle;Max_cycle;Signal;HPM_P1;HPM_P2
2023/03/31 00:01:29;;;;;;;9.50;9.20;;;10.10;99.90;;;;;;5098097;28;20245;-82
2023/03/31 00:04:03;;;;;;;9.60;9.30;;;10.00;99.90;;;;;;5108022;28;20274;-82
2023/03/31 00:06:37;;;;;;;9.77;9.47;;;10.10;99.90;;;;;;5107258;28;20251;-82
2023/03/31 00:09:07;;;;;;;9.60;9.30;;;10.10;99.90;;;;;;5107461;28;20236;-82
2023/03/31 00:11:36;;;;;;;9.40;9.10;;;10.10;99.90;;;;;;5106788;28;20266;-82
2023/03/31 00:14:06;;;;;;;9.67;9.37;;;10.00;99.90;;;;;;5107650;28;20229;-82
2023/03/31 00:16:35;;;;;;;9.80;9.50;;;10.00;99.90;;;;;;5108394;28;20240;-82
2023/03/31 00:19:03;;;;;;;9.97;9.67;;;9.90;99.90;;;;;;5107518;28;20259;-83
2023/03/31 00:21:36;;;;;;;9.90;9.60;;;9.90;99.90;;;;;;5099130;28;20249;-82
2023/03/31 00:24:06;;;;;;;10.00;9.70;;;9.90;99.90;;;;;;5107950;28;20264;-82
2023/03/31 00:26:35;;;;;;;10.00;9.70;;;9.80;99.90;;;;;;5107212;28;20292;-82
2023/03/31 00:29:03;;;;;;;9.90;9.60;;;9.70;99.90;;;;;;5107768;28;20237;-82
2023/03/31 00:31:31;;;;;;;9.80;9.50;;;9.50;99.90;;;;;;5106861;28;20288;-82
2023/03/31 00:34:02;;;;;;;10.00;9.70;;;9.40;99.90;;;;;;5106919;28;20231;-83
2023/03/31 00:36:35;;;;;;;9.70;9.40;;;9.50;99.90;;;;;;5106935;28;20260;-83
2023/03/31 00:39:08;;;;;;;9.70;9.40;;;9.50;99.90;;;;;;5109598;28;20236;-82
2023/03/31 00:41:38;;;;;;;9.47;9.17;;;9.50;99.90;;;;;;5119925;27;20251;-82
2023/03/31 00:44:17;;;;;;;9.70;9.40;;;9.60;99.90;;;;;;5111487;27;20229;-83
2023/03/31 00:46:55;;;;;;;9.90;9.60;;;9.60;99.90;;;;;;5105046;28;20237;-83
2023/03/31 00:49:33;;;;;;;10.00;9.70;;;9.60;99.90;;;;;;5118057;28;20294;-82
2023/03/31 00:52:12;;;;;;;10.17;9.87;;;9.60;99.90;;;;;;5114565;28;20225;-83
2023/03/31 00:54:41;;;;;;;10.10;9.80;;;9.70;99.90;;;;;;5102824;28;20245;-83
2023/03/31 00:57:10;;;;;;;9.80;9.50;;;9.80;99.90;;;;;;5109626;28;20665;-83
2023/03/31 00:59:42;;;;;;;10.20;9.90;;;9.80;99.90;;;;;;5106702;28;20302;-83
2023/03/31 01:02:11;;;;;;;9.83;9.53;;;9.80;99.90;;;;;;5104897;28;20321;-83
2023/03/31 01:04:49;;;;;;;9.90;9.60;;;9.70;99.90;;;;;;5105667;28;20220;-83
2023/03/31 01:07:25;;;;;;;9.90;9.60;;;9.70;99.90;;;;;;5106450;28;20259;-83
2023/03/31 01:09:58;;;;;;;9.77;9.47;;;9.60;99.90;;;;;;5113718;27;20237;-83
2023/03/31 01:12:28;;;;;;;9.90;9.60;;;9.60;99.90;;;;;;5108901;28;20281;-83
2023/03/31 01:14:56;;;;;;;10.00;9.70;;;9.60;99.90;;;;;;5099915;28;20249;-83
2023/03/31 01:17:24;;;;;;;9.93;9.63;;;9.50;99.90;;;;;;5108853;28;20328;-84
2023/03/31 01:20:10;;;;;;;9.70;9.40;;;9.50;99.90;;;;;;5107102;28;20279;-83
2023/03/31 01:23:32;;;;;;;9.77;9.47;;;9.40;99.90;;;;;;5106875;28;20263;-83
2023/03/31 01:26:40;;;;;;;9.80;9.50;;;9.40;99.90;;;;;;5098475;28;20289;-83
2023/03/31 01:29:35;;;;;;;8.97;8.70;;;9.30;99.90;;;;;;5102643;28;20237;-83
2023/03/31 01:33:04;;;;;;;9.60;9.30;;;9.20;99.90;;;;;;5093714;28;20234;-84
2023/03/31 01:36:24;;;;;;;9.30;9.00;;;9.20;99.90;;;;;;5080075;28;20284;-83
2023/03/31 01:39:39;;;;;;;9.23;8.93;;;9.10;99.90;;;;;;5106937;28;20343;-83
2023/03/31 01:42:19;;;;;;;9.13;8.83;;;9.00;99.90;;;;;;5102209;28;20244;-82
2023/03/31 01:44:57;;;;;;;9.23;8.93;;;9.00;99.90;;;;;;5107028;28;20293;-82
2023/03/31 01:47:39;;;;;;;9.60;9.30;;;9.00;99.90;;;;;;5106823;28;20257;-82
2023/03/31 01:50:21;;;;;;;9.50;9.20;;;9.00;99.90;;;;;;5106630;28;20234;-82
2023/03/31 01:52:59;;;;;;;9.60;9.30;;;8.90;99.90;;;;;;5100670;28;20268;-83
2023/03/31 01:55:33;;;;;;;9.40;9.10;;;9.00;99.90;;;;;;5109833;28;20253;-83
2023/03/31 01:58:11;;;;;;;9.30;9.00;;;8.90;99.90;;;;;;5108568;28;20256;-82
2023/03/31 02:00:50;;;;;;;9.23;8.93;;;9.00;99.90;;;;;;5107292;28;20273;-82
2023/03/31 02:03:24;;;;;;;9.27;8.97;;;9.00;99.90;;;;;;5108011;28;20221;-83
2023/03/31 02:05:56;;;;;;;9.20;8.90;;;9.00;99.90;;;;;;5099279;28;20245;-82
2023/03/31 02:08:31;;;;;;;9.20;8.90;;;9.00;99.90;;;;;;5106611;28;20231;-82
2023/03/31 02:11:02;;;;;;;9.40;9.10;;;9.00;99.90;;;;;;5105790;28;20280;-82
2023/03/31 02:13:41;;;;;;;9.20;8.90;;;9.00;99.90;;;;;;5105395;28;20329;-83
2023/03/31 02:16:20;;;;;;;9.33;9.03;;;9.00;99.90;;;;;;5098529;28;20255;-82
2023/03/31 02:18:51;;;;;;;9.30;9.00;;;9.00;99.90;;;;;;5086953;28;20225;-82
2023/03/31 02:21:21;;;;;;;9.13;8.83;;;9.00;99.90;;;;;;5103801;28;20237;-82
2023/03/31 02:23:52;;;;;;;9.13;8.83;;;9.00;99.90;;;;;;5106925;28;20256;-83
2023/03/31 02:26:26;;;;;;;9.10;8.80;;;9.00;99.90;;;;;;5106875;28;20234;-83
2023/03/31 02:28:56;;;;;;;9.10;8.80;;;9.00;99.90;;;;;;5110687;28;20301;-83
2023/03/31 02:31:32;;;;;;;9.33;9.03;;;9.00;99.90;;;;;;5110334;28;20239;-82
2023/03/31 02:34:02;;;;;;;9.30;9.00;;;9.00;99.90;;;;;;5110175;28;20284;-82
2023/03/31 02:36:31;;;;;;;9.40;9.10;;;9.00;99.90;;;;;;5106764;28;20233;-83
2023/03/31 02:39:03;;;;;;;9.30;9.00;;;9.00;99.90;;;;;;5086821;28;20234;-82
2023/03/31 02:41:32;;;;;;;9.40;9.10;;;9.00;99.90;;;;;;5107329;28;20280;-82
2023/03/31 02:44:03;;;;;;;9.20;8.90;;;9.10;99.90;;;;;;5108583;28;20249;-82
2023/03/31 02:46:31;;;;;;;9.17;8.87;;;9.10;99.90;;;;;;5109534;28;20297;-82
2023/03/31 02:49:01;;;;;;;8.93;8.73;;;9.10;99.90;;;;;;5111929;28;20225;-82
2023/03/31 02:52:30;;;;;;;9.10;8.80;;;9.10;99.90;;;;;;5112371;28;20225;-82
2023/03/31 02:55:29;;;;;;;8.90;8.70;;;9.20;99.90;;;;;;5105955;28;20241;-83
2023/03/31 02:58:25;;;;;;;8.90;8.70;;;9.20;99.90;;;;;;5112115;28;20251;-82
2023/03/31 03:01:08;;;;;;;8.67;8.47;;;9.20;99.90;;;;;;5106334;28;20234;-82
2023/03/31 03:03:48;;;;;;;9.30;9.00;;;9.20;99.90;;;;;;5117335;28;20225;-82
2023/03/31 03:06:44;;;;;;;9.50;9.20;;;9.20;99.90;;;;;;5106199;28;20240;-82
2023/03/31 03:09:32;;;;;;;9.20;8.90;;;9.20;99.90;;;;;;5112464;28;20252;-83
2023/03/31 03:12:11;;;;;;;9.60;9.30;;;9.30;99.90;;;;;;5107081;28;20239;-83
2023/03/31 03:14:47;;;;;;;9.73;9.43;;;9.30;99.90;;;;;;5104539;28;20253;-83
2023/03/31 03:17:25;;;;;;;9.50;9.20;;;9.30;99.90;;;;;;5110938;28;20233;-83
2023/03/31 03:19:55;;;;;;;9.60;9.30;;;9.40;99.90;;;;;;5109592;28;20230;-82
2023/03/31 03:22:24;;;;;;;9.77;9.47;;;9.40;99.90;;;;;;5109408;28;20252;-83
2023/03/31 03:24:52;;;;;;;9.67;9.37;;;9.40;99.90;;;;;;5102722;28;20217;-82
2023/03/31 03:27:22;;;;;;;9.90;9.60;;;9.40;99.90;;;;;;5112656;28;20226;-82
2023/03/31 03:29:50;;;;;;;9.80;9.50;;;9.40;99.90;;;;;;5112903;28;20240;-83
2023/03/31 03:32:23;;;;;;;9.50;9.20;;;9.50;99.90;;;;;;5112127;28;20252;-82
2023/03/31 03:34:51;;;;;;;9.30;9.00;;;9.50;99.90;;;;;;5106420;28;20222;-82
2023/03/31 03:37:20;;;;;;;9.23;8.93;;;9.50;99.90;;;;;;5114068;28;20245;-82
2023/03/31 03:39:49;;;;;;;9.00;8.80;;;9.50;99.90;;;;;;5113713;28;20324;-83
2023/03/31 03:42:18;;;;;;;8.90;8.70;;;9.50;99.90;;;;;;5112481;28;20239;-82
2023/03/31 03:44:48;;;;;;;8.90;8.70;;;9.50;99.90;;;;;;5112844;28;20234;-82
2023/03/31 03:47:17;;;;;;;8.90;8.70;;;9.50;99.90;;;;;;5112523;28;20260;-82
2023/03/31 03:49:50;;;;;;;8.60;8.40;;;9.60;99.90;;;;;;5098067;28;20273;-83
2023/03/31 03:52:19;;;;;;;9.30;9.00;;;9.60;99.90;;;;;;5098522;28;20238;-83
2023/03/31 03:54:48;;;;;;;9.50;9.20;;;9.60;99.90;;;;;;5104036;28;20209;-82
2023/03/31 03:57:18;;;;;;;9.53;9.23;;;9.60;99.90;;;;;;5110700;28;20229;-83
2023/03/31 03:59:47;;;;;;;9.17;8.87;;;9.50;99.90;;;;;;5112344;28;20225;-82
2023/03/31 04:02:16;;;;;;;9.40;9.10;;;9.50;99.90;;;;;;5113090;28;20277;-82
2023/03/31 04:04:47;;;;;;;9.50;9.20;;;9.50;99.90;;;;;;5106729;28;20213;-82
2023/03/31 04:07:15;;;;;;;9.40;9.10;;;9.50;99.90;;;;;;5112672;28;20992;-84
2023/03/31 04:09:44;;;;;;;9.60;9.30;;;9.50;99.90;;;;;;5111157;28;20300;-82
2023/03/31 04:12:14;;;;;;;9.60;9.30;;;9.40;99.90;;;;;;5106089;28;20260;-83
2023/03/31 04:14:44;;;;;;;9.43;9.13;;;9.40;99.90;;;;;;5105244;28;20304;-82
2023/03/31 04:17:14;;;;;;;9.20;8.90;;;9.40;99.90;;;;;;5114623;28;20293;-82
2023/03/31 04:19:42;;;;;;;9.50;9.20;;;9.40;99.90;;;;;;5112806;27;20217;-82
2023/03/31 04:22:19;;;;;;;9.57;9.27;;;9.40;99.90;;;;;;5116324;28;20230;-82
2023/03/31 04:24:51;;;;;;;9.50;9.20;;;9.50;99.90;;;;;;5093504;28;20225;-83
2023/03/31 04:27:20;;;;;;;9.63;9.33;;;9.50;99.90;;;;;;5102482;28;20301;-82
2023/03/31 04:29:53;;;;;;;9.60;9.30;;;9.50;99.90;;;;;;5111965;28;20295;-83
2023/03/31 04:32:21;;;;;;;9.63;9.33;;;9.50;99.90;;;;;;5110393;28;20229;-83
2023/03/31 04:34:50;;;;;;;9.43;9.13;;;9.60;99.90;;;;;;5106410;28;20262;-83
2023/03/31 04:37:19;;;;;;;9.70;9.40;;;9.60;99.90;;;;;;5105460;28;20233;-82
2023/03/31 04:39:49;;;;;;;9.57;9.27;;;9.60;99.90;;;;;;5109891;28;20308;-82
2023/03/31 04:42:16;;;;;;;9.53;9.23;;;9.60;99.90;;;;;;5109044;28;20237;-83
2023/03/31 04:44:46;;;;;;;9.73;9.43;;;9.60;99.90;;;;;;5108664;28;20222;-82
2023/03/31 04:47:15;;;;;;;9.30;9.00;;;9.70;99.90;;;;;;5108853;28;20285;-81
2023/03/31 04:49:44;;;;;;;10.60;10.30;;;9.70;99.90;;;;;;5109911;28;20260;-83
2023/03/31 04:52:13;;;;;;;10.07;9.77;;;9.70;99.90;;;;;;5108297;28;20332;-82
2023/03/31 04:54:46;;;;;;;10.37;10.07;;;9.70;99.90;;;;;;5109152;28;20233;-83
2023/03/31 04:57:13;;;;;;;10.13;9.83;;;9.70;99.90;;;;;;5109739;28;20393;-82
2023/03/31 04:59:42;;;;;;;10.07;9.77;;;9.70;99.90;;;;;;5101275;28;20253;-83
2023/03/31 05:02:11;;;;;;;10.10;9.80;;;9.70;99.90;;;;;;5109164;28;20236;-83
2023/03/31 05:04:42;;;;;;;10.10;9.80;;;9.80;99.90;;;;;;5108797;28;20225;-82
2023/03/31 05:07:10;;;;;;;10.10;9.80;;;9.70;99.90;;;;;;5109013;28;20240;-82
2023/03/31 05:09:40;;;;;;;10.30;10.00;;;9.70;99.90;;;;;;5108494;28;20293;-82
2023/03/31 05:12:12;;;;;;;10.20;9.90;;;9.70;99.90;;;;;;5108452;28;20233;-82
2023/03/31 05:14:40;;;;;;;10.00;9.70;;;9.60;99.90;;;;;;5110865;28;20240;-83
2023/03/31 05:17:08;;;;;;;9.67;9.37;;;9.60;99.90;;;;;;5118589;28;20229;-82
2023/03/31 05:19:36;;;;;;;9.83;9.53;;;9.60;99.90;;;;;;5114430;28;20323;-82
2023/03/31 05:22:05;;;;;;;9.73;9.43;;;9.60;99.90;;;;;;5111656;28;20292;-81
2023/03/31 05:24:40;;;;;;;10.13;9.83;;;9.60;99.90;;;;;;5110636;28;20256;-82
2023/03/31 05:27:08;;;;;;;9.77;9.47;;;9.60;99.90;;;;;;5109179;28;20294;-82
2023/03/31 05:29:36;;;;;;;9.20;8.90;;;9.50;99.90;;;;;;5108950;28;20285;-82
2023/03/31 05:32:04;;;;;;;9.50;9.20;;;9.60;99.90;;;;;;5109148;28;20251;-82
2023/03/31 05:34:35;;;;;;;9.50;9.20;;;9.50;99.90;;;;;;5108155;28;20222;-83
2023/03/31 05:37:03;;;;;;;9.67;9.37;;;9.60;99.90;;;;;;5108391;28;20293;-82
2023/03/31 05:39:33;;;;;;;9.70;9.40;;;9.50;99.90;;;;;;5109284;28;20233;-82
2023/03/31 05:42:04;;;;;;;9.27;8.97;;;9.50;99.90;;;;;;5108593;28;20233;-82
2023/03/31 05:44:34;;;;;;;9.47;9.17;;;9.60;99.90;;;;;;5109141;28;20222;-83
2023/03/31 05:47:01;;;;;;;9.53;9.23;;;9.50;99.90;;;;;;5107510;28;20256;-82
2023/03/31 05:49:31;;;;;;;9.50;9.20;;;9.50;99.90;;;;;;5108460;28;20244;-82
2023/03/31 05:52:01;;;;;;;9.70;9.40;;;9.50;99.90;;;;;;5108228;28;21110;-82
2023/03/31 05:54:28;;;;;;;9.67;9.37;;;9.50;99.90;;;;;;5107867;28;20309;-83
2023/03/31 05:56:57;;;;;;;9.60;9.30;;;9.50;99.90;;;;;;5108798;28;20283;-84
2023/03/31 05:59:30;;;;;;;9.60;9.30;;;9.50;99.90;;;;;;5107883;28;20252;-83
2023/03/31 06:02:01;;;;;;;9.73;9.43;;;9.50;99.90;;;;;;5110846;28;20379;-84
2023/03/31 06:04:30;;;;;;;9.60;9.30;;;9.50;99.90;;;;;;5117525;27;20214;-83
2023/03/31 06:06:58;;;;;;;9.67;9.37;;;9.60;99.90;;;;;;5113650;28;20253;-84
2023/03/31 06:09:27;;;;;;;9.67;9.37;;;9.60;99.90;;;;;;5111415;28;20233;-84
2023/03/31 06:11:58;;;;;;;9.80;9.50;;;9.60;99.90;;;;;;5110102;28;20233;-84
2023/03/31 06:14:27;;;;;;;9.83;9.53;;;9.60;99.90;;;;;;5113068;28;20252;-84
2023/03/31 06:16:56;;;;;;;9.80;9.50;;;9.60;99.90;;;;;;5109166;28;20281;-84
2023/03/31 06:19:28;;;;;;;9.93;9.63;;;9.60;99.90;;;;;;5108363;28;20316;-84
2023/03/31 06:21:56;;;;;;;9.80;9.50;;;9.60;99.90;;;;;;5107906;28;20252;-84
2023/03/31 06:24:24;;;;;;;9.90;9.60;;;9.60;99.90;;;;;;5107819;28;20248;-84
2023/03/31 06:26:54;;;;;;;9.80;9.50;;;9.60;99.90;;;;;;5107775;28;20237;-85
2023/03/31 06:29:23;;;;;;;9.80;9.50;;;9.60;99.90;;;;;;5107140;28;20224;-88
2023/03/31 06:31:53;;;;;;;9.93;9.63;;;9.60;99.90;;;;;;5105295;28;20253;-84
2023/03/31 06:34:23;;;;;;;10.10;9.80;;;9.60;99.90;;;;;;5107388;28;20306;-85
2023/03/31 06:36:54;;;;;;;9.90;9.60;;;9.60;99.90;;;;;;5106758;28;20221;-84
2023/03/31 06:39:22;;;;;;;9.67;9.37;;;9.60;99.90;;;;;;5109244;28;20240;-85
2023/03/31 06:41:50;;;;;;;9.70;9.40;;;9.60;99.90;;;;;;5108652;28;20245;-85
2023/03/31 06:44:22;;;;;;;9.87;9.57;;;9.60;99.90;;;;;;5107245;28;20225;-84
2023/03/31 06:46:49;;;;;;;9.87;9.57;;;9.60;99.90;;;;;;5108013;28;20239;-84
2023/03/31 06:49:19;;;;;;;9.80;9.50;;;9.60;99.90;;;;;;5107899;28;20229;-85
2023/03/31 06:51:48;;;;;;;9.67;9.37;;;9.60;99.90;;;;;;5106833;28;20240;-85
2023/03/31 06:54:21;;;;;;;9.70;9.40;;;9.60;99.90;;;;;;5106271;28;20268;-84
2023/03/31 06:56:49;;;;;;;9.50;9.20;;;9.60;99.90;;;;;;5106442;28;20353;-84
2023/03/31 06:59:17;;;;;;;9.30;9.00;;;9.60;99.90;;;;;;5105976;28;20232;-84
2023/03/31 07:01:47;;;;;;;8.67;8.47;;;9.60;99.90;;;;;;5108286;28;20284;-84
2023/03/31 07:04:16;;;;;;;8.57;8.37;;;9.50;99.90;;;;;;5108174;28;20263;-85
2023/03/31 07:06:45;;;;;;;8.50;8.30;;;9.50;99.90;;;;;;5107095;28;20259;-85
2023/03/31 07:09:14;;;;;;;8.30;8.10;;;9.40;99.90;;;;;;5108234;28;20313;-86
2023/03/31 07:11:56;;;;;;;8.20;8.00;;;9.40;99.90;;;;;;5087589;28;20332;-85
2023/03/31 07:14:24;;;;;;;8.20;8.00;;;9.30;99.90;;;;;;5088181;28;20250;-85
2023/03/31 07:16:52;;;;;;;8.10;7.90;;;9.30;99.90;;;;;;5092309;28;20225;-85
2023/03/31 07:19:21;;;;;;;8.00;7.80;;;9.20;99.90;;;;;;5106599;28;20253;-85
2023/03/31 07:21:51;;;;;;;7.90;7.70;;;9.20;99.90;;;;;;5103165;28;20233;-85
2023/03/31 07:24:20;;;;;;;8.03;7.83;;;9.20;99.90;;;;;;5088481;28;20230;-84
2023/03/31 07:26:58;;;;;;;8.10;7.90;;;9.20;99.90;;;;;;5089171;28;20305;-83
2023/03/31 07:29:28;;;;;;;8.00;7.80;;;9.20;99.90;;;;;;5097106;28;20285;-83
2023/03/31 07:31:57;;;;;;;7.80;7.60;;;9.20;99.90;;;;;;5096909;28;20294;-82
2023/03/31 07:34:26;;;;;;;7.77;7.57;;;9.20;99.90;;;;;;5095866;28;20237;-82
2023/03/31 07:36:56;;;;;;;7.80;7.60;;;9.20;99.90;;;;;;5104553;28;20289;-84
2023/03/31 07:39:25;;;;;;;7.30;7.10;;;9.20;99.90;;;;;;5113286;28;20244;-82
2023/03/31 07:41:59;;;;;;;7.50;7.30;;;9.20;99.90;;;;;;5112268;28;20228;-82
2023/03/31 07:44:27;;;;;;;7.30;7.10;;;9.20;99.90;;;;;;5111874;28;20224;-83
2023/03/31 07:46:55;;;;;;;7.60;7.40;;;9.20;99.90;;;;;;5111540;28;20293;-84
2023/03/31 07:49:23;;;;;;;7.63;7.43;;;9.20;99.90;;;;;;5111981;28;20237;-82
2023/03/31 07:51:51;;;;;;;7.60;7.40;;;9.20;99.90;;;;;;5110472;28;20302;-82
2023/03/31 07:54:27;;;;;;;7.27;7.07;;;9.30;99.90;;;;;;5109479;28;20328;-82
2023/03/31 07:57:00;;;;;;;7.57;7.37;;;9.30;99.90;;;;;;5108523;28;20292;-84
2023/03/31 07:59:32;;;;;;;7.80;7.60;;;9.30;99.90;;;;;;5109475;28;20283;-83
2023/03/31 08:02:01;;;;;;;7.50;7.30;;;9.30;99.90;;;;;;5111686;28;20236;-83
2023/03/31 08:04:29;;;;;;;7.70;7.50;;;9.30;99.90;;;;;;5111130;28;20237;-84
2023/03/31 08:07:00;;;;;;;7.90;7.70;;;9.30;99.90;;;;;;5111936;28;20244;-84
2023/03/31 08:09:30;;;;;;;7.90;7.70;;;9.30;99.90;;;;;;5109384;28;20249;-84
2023/03/31 08:12:01;;;;;;;7.40;7.20;;;9.20;99.90;;;;;;5109776;28;20325;-83
2023/03/31 08:14:29;;;;;;;7.50;7.30;;;9.20;99.90;;;;;;5099294;28;20234;-84
2023/03/31 08:16:59;;;;;;;7.27;7.07;;;9.20;99.90;;;;;;5090497;28;20261;-84
2023/03/31 08:19:27;;;;;;;7.70;7.50;;;9.20;99.90;;;;;;5091090;28;20239;-82
2023/03/31 08:21:57;;;;;;;7.70;7.50;;;9.20;99.90;;;;;;5090972;28;20222;-81
2023/03/31 08:24:26;;;;;;;7.93;7.73;;;9.20;99.90;;;;;;5092339;28;20233;-81
2023/03/31 08:26:55;;;;;;;7.90;7.70;;;9.20;99.90;;;;;;5094540;28;20230;-82
2023/03/31 08:29:24;;;;;;;8.20;8.00;;;9.20;99.90;;;;;;5092498;28;20297;-81
2023/03/31 08:31:54;;;;;;;8.10;7.90;;;9.20;99.90;;;;;;5107606;28;20230;-82
2023/03/31 08:34:21;;;;;;;7.90;7.70;;;9.20;99.90;;;;;;5110863;28;20217;-80
2023/03/31 08:36:49;;;;;;;7.80;7.60;;;9.30;99.90;;;;;;5116639;27;20225;-80
2023/03/31 08:39:17;;;;;;;7.70;7.50;;;9.30;99.90;;;;;;5121326;27;20224;-81
2023/03/31 08:41:58;;;;;;;7.70;7.50;;;9.40;99.90;;;;;;5121478;27;20225;-80
2023/03/31 08:44:37;;;;;;;7.70;7.50;;;9.50;99.90;;;;;;5122370;27;20220;-80
2023/03/31 08:47:10;;;;;;;7.10;6.90;;;9.60;99.90;;;;;;5122137;27;20218;-80
2023/03/31 08:49:44;;;;;;;7.10;6.90;;;9.60;99.90;;;;;;5122481;27;20255;-80
2023/03/31 08:52:16;;;;;;;7.17;6.97;;;9.70;99.90;;;;;;5121162;27;20209;-78
2023/03/31 08:54:48;;;;;;;7.70;7.50;;;9.70;99.90;;;;;;5121486;27;20248;-79
2023/03/31 08:57:22;;;;;;;7.50;7.30;;;9.80;99.90;;;;;;5121210;27;20236;-79
2023/03/31 08:59:57;;;;;;;7.60;7.40;;;9.90;99.90;;;;;;5121343;27;20259;-79
2023/03/31 09:02:37;;;;;;;7.70;7.50;;;10.00;99.90;;;;;;5121239;27;20243;-80
2023/03/31 09:05:45;;;;;;;7.70;7.50;;;10.10;99.90;;;;;;5120828;27;20245;-77
2023/03/31 09:08:23;;;;;;;8.07;7.87;;;10.20;99.90;;;;;;5114477;27;20260;-80
2023/03/31 09:10:57;;;;;;;8.00;7.80;;;10.30;99.90;;;;;;5115612;27;20225;-80
2023/03/31 09:13:57;;;;;;;8.20;8.00;;;10.40;99.90;;;;;;5117701;27;20243;-83
2023/03/31 09:16:36;;;;;;;8.30;8.10;;;10.50;99.90;;;;;;5108539;28;20264;-83
2023/03/31 09:19:14;;;;;;;8.53;8.33;;;10.40;99.90;;;;;;5111526;28;20279;-83
2023/03/31 09:21:44;;;;;;;9.30;9.00;;;10.50;99.90;;;;;;5107940;28;20323;-82
2023/03/31 09:24:22;;;;;;;9.10;8.80;;;10.50;99.90;;;;;;5109815;28;20295;-83
2023/03/31 09:26:53;;;;;;;9.20;8.90;;;10.60;99.90;;;;;;5110809;28;20213;-82
2023/03/31 09:29:28;;;;;;;8.57;8.37;;;10.70;99.90;;;;;;5110554;28;20297;-83
2023/03/31 09:32:07;;;;;;;9.00;8.70;;;10.70;99.90;;;;;;5110199;28;20237;-82
2023/03/31 09:34:36;;;;;;;8.57;8.37;;;10.70;99.90;;;;;;5112153;28;20261;-82
2023/03/31 09:37:06;;;;;;;8.70;8.50;;;10.80;99.90;;;;;;5099843;28;20230;-83
2023/03/31 09:39:36;;;;;;;8.80;8.60;;;10.90;99.90;;;;;;5090411;28;20242;-84
2023/03/31 09:42:05;;;;;;;9.03;8.73;;;11.00;99.90;;;;;;5091136;28;20238;-84
2023/03/31 09:44:38;;;;;;;9.17;8.87;;;11.10;99.90;;;;;;5091808;28;20324;-83
2023/03/31 09:47:13;;;;;;;9.60;9.30;;;11.20;99.90;;;;;;5092376;28;20233;-84
2023/03/31 09:49:43;;;;;;;9.20;8.90;;;11.30;99.90;;;;;;5098427;28;20228;-82
2023/03/31 09:55:20;;;;;;;8.80;8.60;;;11.80;99.90;;;;;;5093350;28;20226;-83
2023/03/31 09:57:48;;;;;;;9.50;9.20;;;12.30;99.90;;;;;;5091623;28;20214;-83
2023/03/31 10:00:19;;;;;;;9.90;9.60;;;12.70;99.90;;;;;;5087948;28;20230;-84
2023/03/31 10:02:55;;;;;;;9.50;9.20;;;13.00;99.90;;;;;;5088241;28;20230;-83
2023/03/31 10:05:38;;;;;;;10.13;9.83;;;13.20;99.90;;;;;;5086992;28;20330;-84
2023/03/31 10:08:32;;;;;;;10.10;9.80;;;13.40;99.90;;;;;;5086382;28;20233;-84
2023/03/31 10:11:10;;;;;;;10.17;9.87;;;13.60;99.90;;;;;;5074960;28;20238;-84
2023/03/31 10:13:58;;;;;;;9.60;9.30;;;13.80;99.90;;;;;;5087250;28;20234;-84
2023/03/31 10:16:32;;;;;;;9.93;9.63;;;13.90;99.90;;;;;;5086221;28;20230;-84
2023/03/31 10:19:19;;;;;;;10.47;10.17;;;14.20;99.90;;;;;;5085232;28;20260;-84
2023/03/31 10:21:50;;;;;;;10.00;9.70;;;14.10;99.90;;;;;;5085944;28;20248;-84
2023/03/31 10:24:19;;;;;;;10.63;10.33;;;14.10;99.90;;;;;;5086560;28;20240;-84
2023/03/31 10:26:51;;;;;;;10.47;10.17;;;14.10;99.90;;;;;;5085579;28;20337;-84
2023/03/31 10:29:26;;;;;;;10.13;9.83;;;14.20;99.90;;;;;;5085164;28;20248;-84
2023/03/31 10:31:55;;;;;;;10.40;10.10;;;14.20;99.90;;;;;;5085421;28;20244;-84
2023/03/31 10:34:35;;;;;;;10.63;10.33;;;14.20;99.90;;;;;;5085872;28;20273;-84
2023/03/31 10:37:05;;;;;;;10.37;10.07;;;14.20;99.90;;;;;;5088497;28;20272;-84
2023/03/31 10:39:33;;;;;;;10.50;10.20;;;14.10;99.90;;;;;;5086984;28;20242;-85
2023/03/31 10:42:02;;;;;;;10.57;10.27;;;14.00;99.90;;;;;;5086315;28;20287;-83
2023/03/31 10:44:41;;;;;;;10.70;10.40;;;14.10;99.90;;;;;;5085040;28;20240;-84
2023/03/31 10:47:21;;;;;;;10.27;9.97;;;14.20;99.90;;;;;;5086836;28;20230;-86
2023/03/31 10:49:57;;;;;;;10.20;9.90;;;14.30;99.90;;;;;;5099131;28;20210;-82
2023/03/31 10:52:26;;;;;;;10.20;9.90;;;14.40;99.90;;;;;;5095073;28;20236;-81
2023/03/31 10:54:58;;;;;;;9.90;9.60;;;14.50;99.90;;;;;;5085347;28;20230;-83
2023/03/31 10:57:36;;;;;;;9.60;9.30;;;14.70;99.90;;;;;;5088065;28;20222;-82
2023/03/31 11:00:24;;;;;;;9.70;9.40;;;14.90;99.90;;;;;;5083593;28;20218;-83
2023/03/31 11:03:35;;;;;;;9.40;9.10;;;15.00;99.90;;;;;;5082920;28;20244;-83
2023/03/31 11:06:15;;;;;;;9.90;9.60;;;15.10;99.90;;;;;;5082907;28;20238;-82
2023/03/31 11:08:52;;;;;;;10.10;9.80;;;14.80;99.90;;;;;;5083297;28;20252;-85
2023/03/31 11:11:50;;;;;;;10.20;9.90;;;14.60;99.90;;;;;;5084941;28;20240;-84
2023/03/31 11:14:34;;;;;;;9.83;9.53;;;14.50;99.90;;;;;;5085466;28;20240;-84
2023/03/31 11:17:12;;;;;;;9.80;9.50;;;14.60;99.90;;;;;;5085993;28;20303;-84
2023/03/31 11:19:51;;;;;;;10.10;9.80;;;14.80;99.90;;;;;;5087258;28;20278;-84
2023/03/31 11:22:31;;;;;;;9.70;9.40;;;14.90;99.90;;;;;;5091873;28;20226;-82
2023/03/31 11:25:27;;;;;;;9.93;9.63;;;15.10;99.90;;;;;;5090682;28;20269;-83
2023/03/31 11:28:37;;;;;;;9.98;9.68;;;15.40;99.90;;;;;;5089839;28;20257;-83
2023/03/31 11:34:05;;;;;;;9.80;9.50;;;14.90;99.90;;;;;;5062613;28;20238;-83
2023/03/31 11:36:59;;;;;;;10.07;9.77;;;14.50;99.90;;;;;;5067213;28;20238;-84
2023/03/31 11:39:45;;;;;;;9.93;9.63;;;14.10;99.90;;;;;;5068733;28;20227;-83
2023/03/31 11:45:11;;;;;;;10.20;9.90;;;13.30;99.90;;;;;;5065011;28;20238;-83
2023/03/31 11:47:43;;;;;;;9.80;9.50;;;13.10;99.90;;;;;;5027172;28;20274;-86
2023/03/31 11:50:17;;;;;;;9.90;9.60;;;13.30;99.90;;;;;;5048886;28;20231;-85
2023/03/31 11:52:53;;;;;;;10.10;9.80;;;13.50;99.90;;;;;;5049739;28;20271;-84
2023/03/31 11:55:28;;;;;;;9.80;9.50;;;13.50;99.90;;;;;;5050079;28;20274;-84
2023/03/31 11:58:07;;;;;;;10.00;9.70;;;13.40;99.90;;;;;;5048139;28;20319;-84
2023/03/31 12:00:39;;;;;;;10.07;9.77;;;13.20;99.90;;;;;;5048938;28;20265;-84
2023/03/31 12:03:15;;;;;;;9.80;9.50;;;13.10;99.90;;;;;;5048030;28;20231;-85
2023/03/31 12:05:46;;;;;;;9.97;9.67;;;13.00;99.90;;;;;;5050350;28;20216;-84
2023/03/31 12:08:23;;;;;;;10.10;9.80;;;13.10;99.90;;;;;;5049365;28;20223;-83
2023/03/31 12:11:01;;;;;;;9.70;9.40;;;13.20;99.90;;;;;;5049351;28;20260;-84
2023/03/31 12:13:41;;;;;;;9.20;8.90;;;13.50;99.90;;;;;;5049740;28;20246;-83
2023/03/31 12:16:16;;;;;;;8.70;8.50;;;14.00;99.90;;;;;;5050918;28;20219;-84
2023/03/31 12:18:57;;;;;;;9.15;8.88;;;14.60;99.90;;;;;;5049589;28;20647;-85
2023/03/31 12:21:30;;;;;;;9.30;9.00;;;14.90;99.90;;;;;;5049862;28;20250;-84
2023/03/31 12:23:59;;;;;;;9.23;8.93;;;14.80;99.90;;;;;;5052302;28;20228;-84
2023/03/31 12:26:41;;;;;;;9.60;9.30;;;14.50;99.90;;;;;;5053456;28;20218;-83
2023/03/31 12:29:27;;;;;;;9.27;8.98;;;14.40;99.90;;;;;;5052779;28;20238;-84
2023/03/31 12:31:58;;;;;;;9.35;9.05;;;14.60;99.90;;;;;;5050095;28;20235;-84
2023/03/31 12:34:28;;;;;;;9.25;8.95;;;14.30;99.90;;;;;;5050517;28;20318;-84
2023/03/31 12:37:25;;;;;;;9.10;8.90;;;14.20;99.90;;;;;;5050597;28;20270;-84
2023/03/31 12:40:07;;;;;;;9.00;8.80;;;13.80;99.90;;;;;;5049547;28;20244;-83
2023/03/31 12:43:14;;;;;;;8.90;8.70;;;13.70;99.90;;;;;;5052383;28;20239;-83
2023/03/31 12:45:55;;;;;;;9.60;9.30;;;13.80;99.90;;;;;;5007636;28;20228;-83
2023/03/31 12:48:49;;;;;;;9.63;9.33;;;13.90;99.90;;;;;;5051429;28;20302;-84
2023/03/31 12:51:36;;;;;;;9.40;9.10;;;13.70;99.90;;;;;;5044848;28;20235;-84
2023/03/31 12:54:23;;;;;;;9.90;9.60;;;13.70;99.90;;;;;;5043787;28;20235;-88
2023/03/31 12:57:19;;;;;;;9.63;9.33;;;13.80;99.90;;;;;;5042637;28;20250;-89
2023/03/31 13:00:23;;;;;;;9.97;9.67;;;14.10;99.90;;;;;;5045558;28;20280;-85
2023/03/31 13:02:52;;;;;;;10.27;9.97;;;14.00;99.90;;;;;;5053210;28;20234;-85
2023/03/31 13:05:59;;;;;;;10.80;10.50;;;13.30;99.90;;;;;;5057409;28;20295;-83
2023/03/31 13:09:07;;;;;;;10.70;10.40;;;12.40;99.90;;;;;;4972986;28;20431;-84
2023/03/31 13:11:41;;;;;;;11.00;10.70;;;11.50;99.90;;;;;;4976553;28;20238;-83
2023/03/31 13:14:17;;;;;;;10.87;10.57;;;10.50;99.90;;;;;;5038558;28;20333;-84
2023/03/31 13:17:32;;;;;;;10.27;9.97;;;10.00;99.90;;;;;;5052662;28;20258;-83
2023/03/31 13:20:36;;;;;;;10.20;9.90;;;9.70;99.90;;;;;;5055503;28;20223;-84
2023/03/31 13:23:24;;;;;;;10.00;9.70;;;9.70;99.90;;;;;;5046011;28;20215;-83
2023/03/31 13:25:53;;;;;;;10.10;9.80;;;9.70;99.90;;;;;;5055588;28;20254;-84
2023/03/31 13:28:52;;;;;;;9.53;9.23;;;9.90;99.90;;;;;;5053565;28;20281;-84
2023/03/31 13:31:19;;;;;;;9.67;9.37;;;10.40;99.90;;;;;;5053157;28;20255;-85
2023/03/31 13:33:56;;;;;;;9.47;9.17;;;11.30;99.90;;;;;;5051988;28;20227;-82
2023/03/31 13:37:00;;;;;;;8.90;8.70;;;12.20;99.90;;;;;;5055432;28;20254;-82
2023/03/31 13:40:15;;;;;;;9.80;9.50;;;13.10;99.90;;;;;;5034970;28;20270;-81
2023/03/31 13:43:27;;;;;;;9.73;9.43;;;14.00;99.90;;;;;;5052041;28;20235;-81